Jonesburg, Missouri
Current Conditions -  °F | °C
As of 6:55 PM on Tuesday 21 Oct 2014 (Local Time) from KFYG Reporting Station
Clear Clear  
Wind Chill: 59°   Ceiling: Unl
Heat Index: 59°   Visibility: 10mi
Dew Point: 45°   Wind: 0mph
Humidity: 59%   Direction: NA
Pressure: 30.12"   Gusts: NA
Location:  38.85°N, 91.31°W
Report Text: KFYG 212355Z AUTO 00000KT 10SM CLR 15/07 A3012 RMK AO2
Loading
Personal Weather Stations






























Interactive Weather Map
Tropical Storm Tracking
New forecast layout! Learn more

10-Day Weather Forecast

Advertisements
Track Severe Weather on mobile